Rochester, Minnesota
Current Conditions -  °F | °C
As of 7:54 AM on Thursday 30 Oct 2014 (Local Time) from KRST Reporting Station
Overcast Overcast  
Wind Chill: 32°   Ceiling: 7000
Heat Index: 37°   Visibility: 10mi
Dew Point: 33°   Wind: 7mph
Humidity: 86%   Direction: 160°SSE
Pressure: 30.05"   Gusts: NA
Location:  44.02°N, 92.46°W
Report Text: KRST 301254Z 16006KT 10SM OVC070 03/01 A3005 RMK AO2 SLP187 T00280006
Loading
Personal Weather Stations






























Interactive Weather Map New forecast layout! Learn more

10-Day Weather Forecast

Advertisements
Track Severe Weather on mobile